sensor_id;sensor_type;location;lat;lon;timestamp;pressure;altitude;pressure_sealevel;temperature;humidity
44441;BME280;30146;52.268;20.944;2023-04-27T00:01:35;100367.29;;;4.91;53.84
44441;BME280;30146;52.268;20.944;2023-04-27T00:04:06;100364.90;;;4.89;53.78
44441;BME280;30146;52.268;20.944;2023-04-27T00:06:37;100367.73;;;4.87;53.92
44441;BME280;30146;52.268;20.944;2023-04-27T00:09:08;100366.17;;;4.83;53.61
44441;BME280;30146;52.268;20.944;2023-04-27T00:11:40;100367.48;;;4.81;53.80
44441;BME280;30146;52.268;20.944;2023-04-27T00:14:11;100367.48;;;4.80;53.98
44441;BME280;30146;52.268;20.944;2023-04-27T00:16:42;100369.17;;;4.80;54.14
44441;BME280;30146;52.268;20.944;2023-04-27T00:19:13;100367.44;;;4.78;54.49
44441;BME280;30146;52.268;20.944;2023-04-27T00:21:44;100363.17;;;4.76;54.45
44441;BME280;30146;52.268;20.944;2023-04-27T00:24:15;100366.03;;;4.74;54.10
44441;BME280;30146;52.268;20.944;2023-04-27T00:26:46;100363.98;;;4.74;54.42
44441;BME280;30146;52.268;20.944;2023-04-27T00:29:17;100365.02;;;4.73;54.46
44441;BME280;30146;52.268;20.944;2023-04-27T00:31:47;100366.55;;;4.74;54.77
44441;BME280;30146;52.268;20.944;2023-04-27T00:34:18;100369.96;;;4.76;54.72
44441;BME280;30146;52.268;20.944;2023-04-27T00:36:49;100371.18;;;4.79;54.90
44441;BME280;30146;52.268;20.944;2023-04-27T00:39:23;100372.23;;;4.80;54.60
44441;BME280;30146;52.268;20.944;2023-04-27T00:41:53;100370.23;;;4.82;54.72
44441;BME280;30146;52.268;20.944;2023-04-27T00:44:28;100373.96;;;4.83;54.81
44441;BME280;30146;52.268;20.944;2023-04-27T00:46:58;100375.16;;;4.84;54.99
44441;BME280;30146;52.268;20.944;2023-04-27T00:49:29;100376.52;;;4.84;54.99
44441;BME280;30146;52.268;20.944;2023-04-27T00:52:00;100376.52;;;4.85;54.84
44441;BME280;30146;52.268;20.944;2023-04-27T00:54:31;100379.55;;;4.83;54.99
44441;BME280;30146;52.268;20.944;2023-04-27T00:57:04;100377.84;;;4.82;54.97
44441;BME280;30146;52.268;20.944;2023-04-27T00:59:34;100380.69;;;4.80;55.01
44441;BME280;30146;52.268;20.944;2023-04-27T01:02:05;100384.05;;;4.79;55.08
44441;BME280;30146;52.268;20.944;2023-04-27T01:04:36;100389.77;;;4.77;54.80
44441;BME280;30146;52.268;20.944;2023-04-27T01:07:07;100382.97;;;4.74;55.10
44441;BME280;30146;52.268;20.944;2023-04-27T01:09:38;100390.55;;;4.72;55.02
44441;BME280;30146;52.268;20.944;2023-04-27T01:12:10;100391.69;;;4.68;55.30
44441;BME280;30146;52.268;20.944;2023-04-27T01:14:41;100392.47;;;4.65;55.05
44441;BME280;30146;52.268;20.944;2023-04-27T01:17:12;100392.91;;;4.60;55.31
44441;BME280;30146;52.268;20.944;2023-04-27T01:19:43;100395.91;;;4.57;55.36
44441;BME280;30146;52.268;20.944;2023-04-27T01:22:14;100395.35;;;4.53;55.33
44441;BME280;30146;52.268;20.944;2023-04-27T01:24:45;100396.98;;;4.50;55.62
44441;BME280;30146;52.268;20.944;2023-04-27T01:27:15;100396.45;;;4.48;55.72
44441;BME280;30146;52.268;20.944;2023-04-27T01:29:46;100400.66;;;4.47;55.88
44441;BME280;30146;52.268;20.944;2023-04-27T01:32:17;100399.27;;;4.44;55.78
44441;BME280;30146;52.268;20.944;2023-04-27T01:34:48;100403.27;;;4.40;55.72
44441;BME280;30146;52.268;20.944;2023-04-27T01:37:19;100398.64;;;4.37;55.67
44441;BME280;30146;52.268;20.944;2023-04-27T01:39:52;100399.27;;;4.34;55.99
44441;BME280;30146;52.268;20.944;2023-04-27T01:42:23;100399.71;;;4.30;55.91
44441;BME280;30146;52.268;20.944;2023-04-27T01:44:54;100401.85;;;4.27;56.30
44441;BME280;30146;52.268;20.944;2023-04-27T01:47:25;100403.17;;;4.25;56.25
44441;BME280;30146;52.268;20.944;2023-04-27T01:49:56;100403.82;;;4.22;56.36
44441;BME280;30146;52.268;20.944;2023-04-27T01:52:27;100401.44;;;4.22;56.31
44441;BME280;30146;52.268;20.944;2023-04-27T01:54:57;100403.29;;;4.22;56.64
44441;BME280;30146;52.268;20.944;2023-04-27T01:57:28;100407.69;;;4.22;56.39
44441;BME280;30146;52.268;20.944;2023-04-27T02:00:00;100405.02;;;4.24;56.48
44441;BME280;30146;52.268;20.944;2023-04-27T02:02:50;100405.90;;;4.25;56.63
44441;BME280;30146;52.268;20.944;2023-04-27T02:05:22;100409.28;;;4.26;56.74
44441;BME280;30146;52.268;20.944;2023-04-27T02:07:54;100409.27;;;4.26;56.97
44441;BME280;30146;52.268;20.944;2023-04-27T02:10:25;100410.46;;;4.26;56.90
44441;BME280;30146;52.268;20.944;2023-04-27T02:12:59;100409.93;;;4.24;56.82
44441;BME280;30146;52.268;20.944;2023-04-27T02:15:30;100411.77;;;4.24;56.92
44441;BME280;30146;52.268;20.944;2023-04-27T02:18:01;100413.61;;;4.23;57.12
44441;BME280;30146;52.268;20.944;2023-04-27T02:20:33;100409.18;;;4.20;56.95
44441;BME280;30146;52.268;20.944;2023-04-27T02:23:04;100407.96;;;4.19;56.86
44441;BME280;30146;52.268;20.944;2023-04-27T02:25:37;100406.10;;;4.18;56.85
44441;BME280;30146;52.268;20.944;2023-04-27T02:28:11;100404.70;;;4.15;57.28
44441;BME280;30146;52.268;20.944;2023-04-27T02:30:43;100404.98;;;4.12;57.18
44441;BME280;30146;52.268;20.944;2023-04-27T02:33:14;100401.89;;;4.10;57.03
44441;BME280;30146;52.268;20.944;2023-04-27T02:35:45;100404.40;;;4.08;57.41
44441;BME280;30146;52.268;20.944;2023-04-27T02:38:16;100403.33;;;4.06;57.14
44441;BME280;30146;52.268;20.944;2023-04-27T02:40:47;100407.20;;;4.03;57.41
44441;BME280;30146;52.268;20.944;2023-04-27T02:43:22;100410.08;;;4.04;57.33
44441;BME280;30146;52.268;20.944;2023-04-27T02:45:53;100411.26;;;4.03;57.54
44441;BME280;30146;52.268;20.944;2023-04-27T02:48:23;100415.33;;;4.04;57.25
44441;BME280;30146;52.268;20.944;2023-04-27T02:50:55;100419.54;;;4.03;57.54
44441;BME280;30146;52.268;20.944;2023-04-27T02:53:26;100419.88;;;4.03;57.54
44441;BME280;30146;52.268;20.944;2023-04-27T02:55:57;100420.73;;;4.03;57.52
44441;BME280;30146;52.268;20.944;2023-04-27T02:58:27;100417.35;;;4.03;57.55
44441;BME280;30146;52.268;20.944;2023-04-27T03:00:58;100416.13;;;4.01;57.57
44441;BME280;30146;52.268;20.944;2023-04-27T03:03:29;100414.36;;;3.98;57.40
44441;BME280;30146;52.268;20.944;2023-04-27T03:06:00;100418.18;;;3.94;57.46
44441;BME280;30146;52.268;20.944;2023-04-27T03:08:32;100416.79;;;3.92;57.68
44441;BME280;30146;52.268;20.944;2023-04-27T03:11:03;100420.83;;;3.90;57.58
44441;BME280;30146;52.268;20.944;2023-04-27T03:13:34;100422.45;;;3.88;57.64
44441;BME280;30146;52.268;20.944;2023-04-27T03:16:11;100423.45;;;3.86;57.72
44441;BME280;30146;52.268;20.944;2023-04-27T03:18:42;100423.06;;;3.83;57.67
44441;BME280;30146;52.268;20.944;2023-04-27T03:21:14;100422.19;;;3.82;57.45
44441;BME280;30146;52.268;20.944;2023-04-27T03:23:45;100422.46;;;3.79;57.57
44441;BME280;30146;52.268;20.944;2023-04-27T03:26:17;100423.28;;;3.77;57.59
44441;BME280;30146;52.268;20.944;2023-04-27T03:28:48;100423.42;;;3.76;57.91
44441;BME280;30146;52.268;20.944;2023-04-27T03:31:19;100425.15;;;3.77;58.06
44441;BME280;30146;52.268;20.944;2023-04-27T03:33:50;100423.83;;;3.80;57.84
44441;BME280;30146;52.268;20.944;2023-04-27T03:36:21;100426.91;;;3.82;58.02
44441;BME280;30146;52.268;20.944;2023-04-27T03:38:52;100428.34;;;3.85;58.32
44441;BME280;30146;52.268;20.944;2023-04-27T03:41:22;100427.91;;;3.90;58.42
44441;BME280;30146;52.268;20.944;2023-04-27T03:43:53;100426.79;;;3.93;58.26
44441;BME280;30146;52.268;20.944;2023-04-27T03:46:24;100427.88;;;3.97;58.39
44441;BME280;30146;52.268;20.944;2023-04-27T03:48:55;100433.35;;;4.00;58.39
44441;BME280;30146;52.268;20.944;2023-04-27T03:51:26;100441.03;;;4.04;58.28
44441;BME280;30146;52.268;20.944;2023-04-27T03:53:57;100447.20;;;4.09;58.15
44441;BME280;30146;52.268;20.944;2023-04-27T03:56:28;100444.96;;;4.15;58.51
44441;BME280;30146;52.268;20.944;2023-04-27T03:58:59;100449.46;;;4.21;58.51
44441;BME280;30146;52.268;20.944;2023-04-27T04:01:34;100452.84;;;4.30;58.33
44441;BME280;30146;52.268;20.944;2023-04-27T04:04:04;100460.39;;;4.55;58.33
44441;BME280;30146;52.268;20.944;2023-04-27T04:06:36;100458.59;;;5.03;58.64
44441;BME280;30146;52.268;20.944;2023-04-27T04:09:06;100460.03;;;5.58;59.01
44441;BME280;30146;52.268;20.944;2023-04-27T04:11:39;100456.85;;;6.18;58.67
44441;BME280;30146;52.268;20.944;2023-04-27T04:14:11;100456.91;;;6.81;58.32
44441;BME280;30146;52.268;20.944;2023-04-27T04:16:43;100456.80;;;7.43;57.82
44441;BME280;30146;52.268;20.944;2023-04-27T04:19:15;100451.77;;;8.08;57.17
44441;BME280;30146;52.268;20.944;2023-04-27T04:25:33;100451.34;;;9.70;55.30
44441;BME280;30146;52.268;20.944;2023-04-27T04:28:10;100453.39;;;10.36;54.51
44441;BME280;30146;52.268;20.944;2023-04-27T04:30:41;100446.76;;;10.96;53.80
44441;BME280;30146;52.268;20.944;2023-04-27T04:33:12;100452.21;;;11.34;52.57
44441;BME280;30146;52.268;20.944;2023-04-27T04:35:44;100447.81;;;11.27;50.85
44441;BME280;30146;52.268;20.944;2023-04-27T04:38:15;100450.17;;;10.97;49.83
44441;BME280;30146;52.268;20.944;2023-04-27T04:40:53;100454.69;;;10.70;49.51
44441;BME280;30146;52.268;20.944;2023-04-27T04:43:24;100456.94;;;10.68;49.63
44441;BME280;30146;52.268;20.944;2023-04-27T04:45:55;100454.52;;;11.08;50.49
44441;BME280;30146;52.268;20.944;2023-04-27T04:48:26;100457.67;;;11.64;50.41
44441;BME280;30146;52.268;20.944;2023-04-27T04:50:57;100457.11;;;12.22;50.16
44441;BME280;30146;52.268;20.944;2023-04-27T04:53:29;100462.00;;;12.83;49.86
44441;BME280;30146;52.268;20.944;2023-04-27T04:56:18;100454.83;;;13.49;49.58
44441;BME280;30146;52.268;20.944;2023-04-27T04:58:51;100452.88;;;14.17;48.31
44441;BME280;30146;52.268;20.944;2023-04-27T05:01:46;100455.88;;;14.67;47.30
44441;BME280;30146;52.268;20.944;2023-04-27T05:04:25;100457.28;;;15.19;46.31
44441;BME280;30146;52.268;20.944;2023-04-27T05:06:56;100458.23;;;15.73;46.32
44441;BME280;30146;52.268;20.944;2023-04-27T05:09:28;100463.75;;;16.25;45.63
44441;BME280;30146;52.268;20.944;2023-04-27T05:12:02;100467.64;;;16.77;45.18
44441;BME280;30146;52.268;20.944;2023-04-27T05:14:39;100466.94;;;17.33;44.47
44441;BME280;30146;52.268;20.944;2023-04-27T05:17:10;100470.96;;;17.80;43.60
44441;BME280;30146;52.268;20.944;2023-04-27T05:19:41;100468.63;;;18.24;42.91
44441;BME280;30146;52.268;20.944;2023-04-27T05:22:12;100467.33;;;18.65;42.35
44441;BME280;30146;52.268;20.944;2023-04-27T05:24:44;100469.71;;;19.04;41.42
44441;BME280;30146;52.268;20.944;2023-04-27T05:27:14;100471.70;;;19.42;40.99
44441;BME280;30146;52.268;20.944;2023-04-27T05:29:48;100472.17;;;19.86;40.52
44441;BME280;30146;52.268;20.944;2023-04-27T05:32:18;100474.23;;;20.28;40.04
44441;BME280;30146;52.268;20.944;2023-04-27T05:34:49;100477.98;;;20.69;39.56
44441;BME280;30146;52.268;20.944;2023-04-27T05:37:21;100478.07;;;21.13;39.58
44441;BME280;30146;52.268;20.944;2023-04-27T05:39:52;100475.16;;;21.52;38.88
44441;BME280;30146;52.268;20.944;2023-04-27T05:42:22;100478.85;;;21.62;37.94
44441;BME280;30146;52.268;20.944;2023-04-27T05:44:53;100478.70;;;21.55;37.03
44441;BME280;30146;52.268;20.944;2023-04-27T05:47:28;100477.48;;;21.44;36.50
44441;BME280;30146;52.268;20.944;2023-04-27T05:50:03;100480.76;;;21.49;36.05
44441;BME280;30146;52.268;20.944;2023-04-27T05:52:34;100483.76;;;21.67;36.08
44441;BME280;30146;52.268;20.944;2023-04-27T05:55:08;100484.78;;;22.10;36.34
44441;BME280;30146;52.268;20.944;2023-04-27T05:57:41;100478.46;;;22.61;36.13
44441;BME280;30146;52.268;20.944;2023-04-27T06:00:14;100481.17;;;23.04;35.48
44441;BME280;30146;52.268;20.944;2023-04-27T06:02:46;100481.59;;;23.35;34.38
44441;BME280;30146;52.268;20.944;2023-04-27T06:05:17;100482.66;;;23.63;33.91
44441;BME280;30146;52.268;20.944;2023-04-27T06:07:49;100487.18;;;23.89;33.49
44441;BME280;30146;52.268;20.944;2023-04-27T06:10:25;100488.96;;;24.27;33.62
44441;BME280;30146;52.268;20.944;2023-04-27T06:12:56;100493.70;;;24.76;33.38
44441;BME280;30146;52.268;20.944;2023-04-27T06:15:27;100488.10;;;25.23;33.04
44441;BME280;30146;52.268;20.944;2023-04-27T06:17:58;100489.62;;;25.57;32.26
44441;BME280;30146;52.268;20.944;2023-04-27T06:20:29;100485.63;;;25.94;31.78
44441;BME280;30146;52.268;20.944;2023-04-27T06:23:00;100487.21;;;26.30;31.47
44441;BME280;30146;52.268;20.944;2023-04-27T06:29:08;100489.91;;;27.23;30.92
44441;BME280;30146;52.268;20.944;2023-04-27T06:31:39;100492.09;;;27.66;30.65
44441;BME280;30146;52.268;20.944;2023-04-27T06:37:19;100488.00;;;28.26;29.26
44441;BME280;30146;52.268;20.944;2023-04-27T06:39:50;100491.31;;;28.39;28.69
44441;BME280;30146;52.268;20.944;2023-04-27T06:42:30;100487.38;;;28.57;28.47
44441;BME280;30146;52.268;20.944;2023-04-27T06:45:01;100494.20;;;28.75;28.23
44441;BME280;30146;52.268;20.944;2023-04-27T06:47:33;100494.72;;;28.98;28.23
44441;BME280;30146;52.268;20.944;2023-04-27T06:50:04;100493.70;;;29.29;28.27
44441;BME280;30146;52.268;20.944;2023-04-27T06:52:35;100495.61;;;29.48;27.79
44441;BME280;30146;52.268;20.944;2023-04-27T06:55:07;100497.52;;;29.52;27.17
44441;BME280;30146;52.268;20.944;2023-04-27T06:57:38;100503.68;;;29.56;26.90
44441;BME280;30146;52.268;20.944;2023-04-27T07:00:11;100501.23;;;29.64;26.72
44441;BME280;30146;52.268;20.944;2023-04-27T07:02:42;100502.81;;;29.83;26.77
44441;BME280;30146;52.268;20.944;2023-04-27T07:05:13;100501.41;;;30.04;26.81
44441;BME280;30146;52.268;20.944;2023-04-27T07:07:44;100497.60;;;30.22;26.20
44441;BME280;30146;52.268;20.944;2023-04-27T07:10:27;100499.56;;;29.99;25.20
44441;BME280;30146;52.268;20.944;2023-04-27T07:12:59;100496.80;;;29.89;25.33
44441;BME280;30146;52.268;20.944;2023-04-27T07:15:30;100496.16;;;29.80;25.13
44441;BME280;30146;52.268;20.944;2023-04-27T07:18:01;100502.34;;;29.57;24.84
44441;BME280;30146;52.268;20.944;2023-04-27T07:20:33;100503.09;;;29.49;25.07
44441;BME280;30146;52.268;20.944;2023-04-27T07:23:06;100505.41;;;29.44;25.45
44441;BME280;30146;52.268;20.944;2023-04-27T07:25:38;100511.27;;;29.56;26.12
44441;BME280;30146;52.268;20.944;2023-04-27T07:28:09;100510.11;;;29.51;25.45
44441;BME280;30146;52.268;20.944;2023-04-27T07:30:41;100510.71;;;29.13;25.30
44441;BME280;30146;52.268;20.944;2023-04-27T07:33:14;100509.84;;;28.71;25.58
44441;BME280;30146;52.268;20.944;2023-04-27T07:35:45;100510.48;;;28.28;25.65
44441;BME280;30146;52.268;20.944;2023-04-27T07:38:31;100511.89;;;27.80;25.85
44441;BME280;30146;52.268;20.944;2023-04-27T07:41:18;100511.44;;;27.40;26.09
44441;BME280;30146;52.268;20.944;2023-04-27T07:43:52;100509.13;;;26.83;25.78
44441;BME280;30146;52.268;20.944;2023-04-27T07:46:23;100515.55;;;26.36;25.96
44441;BME280;30146;52.268;20.944;2023-04-27T07:48:55;100515.91;;;25.94;26.16
44441;BME280;30146;52.268;20.944;2023-04-27T07:51:28;100514.98;;;25.60;26.43
44441;BME280;30146;52.268;20.944;2023-04-27T07:53:59;100515.55;;;25.28;26.66
44441;BME280;30146;52.268;20.944;2023-04-27T08:01:10;100516.06;;;24.79;27.36
44441;BME280;30146;52.268;20.944;2023-04-27T08:03:41;100515.98;;;24.67;27.68
44441;BME280;30146;52.268;20.944;2023-04-27T08:06:13;100516.83;;;24.64;27.52
44441;BME280;30146;52.268;20.944;2023-04-27T08:08:45;100517.17;;;24.56;27.52
44441;BME280;30146;52.268;20.944;2023-04-27T08:11:16;100516.11;;;24.48;27.53
44441;BME280;30146;52.268;20.944;2023-04-27T08:13:47;100513.86;;;24.39;27.34
44441;BME280;30146;52.268;20.944;2023-04-27T08:16:18;100512.17;;;24.30;27.37
44441;BME280;30146;52.268;20.944;2023-04-27T08:18:49;100510.90;;;24.20;27.11
44441;BME280;30146;52.268;20.944;2023-04-27T08:21:20;100509.08;;;23.91;26.63
44441;BME280;30146;52.268;20.944;2023-04-27T08:23:51;100519.88;;;23.49;26.74
44441;BME280;30146;52.268;20.944;2023-04-27T08:26:22;100517.60;;;23.01;27.00
44441;BME280;30146;52.268;20.944;2023-04-27T08:28:58;100518.89;;;22.39;26.94
44441;BME280;30146;52.268;20.944;2023-04-27T08:31:37;100515.92;;;21.78;26.99
44441;BME280;30146;52.268;20.944;2023-04-27T08:34:08;100523.74;;;21.23;26.82
44441;BME280;30146;52.268;20.944;2023-04-27T08:36:42;100519.33;;;20.69;27.54
44441;BME280;30146;52.268;20.944;2023-04-27T08:39:13;100518.33;;;20.31;28.18
44441;BME280;30146;52.268;20.944;2023-04-27T08:41:44;100517.56;;;19.95;28.56
44441;BME280;30146;52.268;20.944;2023-04-27T08:44:17;100518.70;;;19.62;28.93
44441;BME280;30146;52.268;20.944;2023-04-27T08:46:48;100514.73;;;19.21;29.10
44441;BME280;30146;52.268;20.944;2023-04-27T08:49:20;100515.80;;;18.82;29.24
44441;BME280;30146;52.268;20.944;2023-04-27T08:51:51;100510.08;;;18.61;29.80
44441;BME280;30146;52.268;20.944;2023-04-27T08:54:27;100519.54;;;18.36;30.21
44441;BME280;30146;52.268;20.944;2023-04-27T08:56:58;100521.39;;;18.10;30.44
44441;BME280;30146;52.268;20.944;2023-04-27T08:59:29;100524.41;;;17.84;30.65
44441;BME280;30146;52.268;20.944;2023-04-27T09:02:01;100524.48;;;17.58;30.87
44441;BME280;30146;52.268;20.944;2023-04-27T09:04:40;100525.24;;;17.31;31.05
44441;BME280;30146;52.268;20.944;2023-04-27T09:07:17;100527.48;;;17.06;31.31
44441;BME280;30146;52.268;20.944;2023-04-27T09:09:48;100525.59;;;16.78;31.39
44441;BME280;30146;52.268;20.944;2023-04-27T09:12:20;100531.29;;;16.51;31.43
44441;BME280;30146;52.268;20.944;2023-04-27T09:15:01;100530.52;;;16.25;31.59
44441;BME280;30146;52.268;20.944;2023-04-27T09:17:34;100535.89;;;16.00;31.69
44441;BME280;30146;52.268;20.944;2023-04-27T09:20:09;100538.33;;;15.74;31.80
44441;BME280;30146;52.268;20.944;2023-04-27T09:22:47;100536.98;;;15.47;32.14
44441;BME280;30146;52.268;20.944;2023-04-27T09:25:25;100533.58;;;15.19;32.66
44441;BME280;30146;52.268;20.944;2023-04-27T09:27:57;100536.96;;;14.94;33.41
44441;BME280;30146;52.268;20.944;2023-04-27T09:30:29;100537.27;;;14.74;34.01
44441;BME280;30146;52.268;20.944;2023-04-27T09:33:02;100532.74;;;14.52;34.35
44441;BME280;30146;52.268;20.944;2023-04-27T09:35:33;100535.21;;;14.34;34.69
44441;BME280;30146;52.268;20.944;2023-04-27T09:38:04;100537.65;;;14.24;35.23
44441;BME280;30146;52.268;20.944;2023-04-27T09:40:35;100534.63;;;14.21;35.48
44441;BME280;30146;52.268;20.944;2023-04-27T09:43:08;100534.11;;;14.21;35.56
44441;BME280;30146;52.268;20.944;2023-04-27T09:45:40;100532.73;;;14.21;35.66
44441;BME280;30146;52.268;20.944;2023-04-27T09:48:11;100528.80;;;14.20;35.78
44441;BME280;30146;52.268;20.944;2023-04-27T09:50:45;100532.24;;;14.20;35.83
44441;BME280;30146;52.268;20.944;2023-04-27T09:53:18;100529.86;;;14.19;35.91
44441;BME280;30146;52.268;20.944;2023-04-27T09:55:58;100529.11;;;14.14;35.69
44441;BME280;30146;52.268;20.944;2023-04-27T09:58:46;100528.02;;;14.09;35.68
44441;BME280;30146;52.268;20.944;2023-04-27T10:01:28;100532.40;;;14.04;35.70
44441;BME280;30146;52.268;20.944;2023-04-27T10:04:11;100536.97;;;13.99;35.80
44441;BME280;30146;52.268;20.944;2023-04-27T10:06:55;100539.44;;;13.96;35.92
44441;BME280;30146;52.268;20.944;2023-04-27T10:09:33;100540.00;;;13.94;35.91
44441;BME280;30146;52.268;20.944;2023-04-27T10:12:18;100536.42;;;13.93;35.89
44441;BME280;30146;52.268;20.944;2023-04-27T10:14:51;100537.86;;;13.89;35.68
44441;BME280;30146;52.268;20.944;2023-04-27T10:17:28;100535.70;;;13.86;35.75
44441;BME280;30146;52.268;20.944;2023-04-27T10:20:01;100538.71;;;13.81;35.79
44441;BME280;30146;52.268;20.944;2023-04-27T10:22:42;100536.02;;;13.78;36.07
44441;BME280;30146;52.268;20.944;2023-04-27T10:25:21;100532.59;;;13.78;36.11
44441;BME280;30146;52.268;20.944;2023-04-27T10:27:56;100536.23;;;13.76;35.92
44441;BME280;30146;52.268;20.944;2023-04-27T10:30:35;100537.50;;;13.73;35.93
44441;BME280;30146;52.268;20.944;2023-04-27T10:33:07;100535.27;;;13.73;35.72
44441;BME280;30146;52.268;20.944;2023-04-27T10:35:39;100531.34;;;13.72;35.67
44441;BME280;30146;52.268;20.944;2023-04-27T10:38:15;100529.61;;;13.72;35.72
44441;BME280;30146;52.268;20.944;2023-04-27T10:40:55;100529.06;;;13.75;35.79
44441;BME280;30146;52.268;20.944;2023-04-27T10:43:27;100533.79;;;13.78;35.66
44441;BME280;30146;52.268;20.944;2023-04-27T10:46:10;100534.21;;;13.82;35.49
44441;BME280;30146;52.268;20.944;2023-04-27T10:48:42;100533.73;;;13.89;35.79
44441;BME280;30146;52.268;20.944;2023-04-27T10:51:17;100526.48;;;14.08;36.24
44441;BME280;30146;52.268;20.944;2023-04-27T10:53:52;100533.34;;;14.25;36.44
44441;BME280;30146;52.268;20.944;2023-04-27T10:56:22;100537.39;;;14.36;36.33
44441;BME280;30146;52.268;20.944;2023-04-27T10:58:53;100538.50;;;14.41;36.07
44441;BME280;30146;52.268;20.944;2023-04-27T11:01:28;100544.20;;;14.39;35.73
44441;BME280;30146;52.268;20.944;2023-04-27T11:03:59;100546.16;;;14.29;35.63
44441;BME280;30146;52.268;20.944;2023-04-27T11:06:39;100543.23;;;14.12;35.53
44441;BME280;30146;52.268;20.944;2023-04-27T11:09:11;100552.01;;;13.95;35.46
44441;BME280;30146;52.268;20.944;2023-04-27T11:11:46;100555.61;;;13.78;35.38
44441;BME280;30146;52.268;20.944;2023-04-27T11:14:20;100559.58;;;13.59;34.91
44441;BME280;30146;52.268;20.944;2023-04-27T11:16:51;100561.91;;;13.43;34.70
44441;BME280;30146;52.268;20.944;2023-04-27T11:19:22;100561.13;;;13.29;34.57
44441;BME280;30146;52.268;20.944;2023-04-27T11:22:03;100562.84;;;13.18;34.67
44441;BME280;30146;52.268;20.944;2023-04-27T11:24:34;100563.86;;;13.08;34.80
44441;BME280;30146;52.268;20.944;2023-04-27T11:27:05;100563.63;;;13.01;35.03
44441;BME280;30146;52.268;20.944;2023-04-27T11:29:39;100563.72;;;12.95;35.07
44441;BME280;30146;52.268;20.944;2023-04-27T11:32:20;100561.56;;;12.90;35.14
44441;BME280;30146;52.268;20.944;2023-04-27T11:34:52;100562.45;;;12.88;35.37
44441;BME280;30146;52.268;20.944;2023-04-27T11:37:26;100559.20;;;12.87;35.51
44441;BME280;30146;52.268;20.944;2023-04-27T11:43:01;100556.41;;;12.90;35.44
44441;BME280;30146;52.268;20.944;2023-04-27T11:45:50;100556.69;;;12.95;35.74
44441;BME280;30146;52.268;20.944;2023-04-27T11:48:23;100551.77;;;13.02;35.85
44441;BME280;30146;52.268;20.944;2023-04-27T11:50:55;100552.83;;;13.11;35.73
44441;BME280;30146;52.268;20.944;2023-04-27T11:53:32;100547.88;;;13.19;35.61
44441;BME280;30146;52.268;20.944;2023-04-27T11:56:08;100547.02;;;13.30;35.56
44441;BME280;30146;52.268;20.944;2023-04-27T11:58:47;100547.39;;;13.40;35.55
44441;BME280;30146;52.268;20.944;2023-04-27T12:01:20;100549.38;;;13.53;35.63
44441;BME280;30146;52.268;20.944;2023-04-27T12:04:06;100545.88;;;13.66;35.42
44441;BME280;30146;52.268;20.944;2023-04-27T12:06:41;100546.58;;;13.75;35.27
44441;BME280;30146;52.268;20.944;2023-04-27T12:09:14;100550.42;;;13.80;35.10
44441;BME280;30146;52.268;20.944;2023-04-27T12:11:46;100550.08;;;13.80;34.93
44441;BME280;30146;52.268;20.944;2023-04-27T12:14:17;100550.81;;;13.77;34.67
44441;BME280;30146;52.268;20.944;2023-04-27T12:16:48;100556.42;;;13.71;34.44
44441;BME280;30146;52.268;20.944;2023-04-27T12:19:19;100557.07;;;13.64;34.55
44441;BME280;30146;52.268;20.944;2023-04-27T12:21:53;100556.02;;;13.56;34.43
44441;BME280;30146;52.268;20.944;2023-04-27T12:24:25;100553.95;;;13.47;34.39
44441;BME280;30146;52.268;20.944;2023-04-27T12:26:56;100555.61;;;13.41;34.54
44441;BME280;30146;52.268;20.944;2023-04-27T12:29:28;100560.20;;;13.34;34.53
44441;BME280;30146;52.268;20.944;2023-04-27T12:32:00;100560.77;;;13.28;34.49
44441;BME280;30146;52.268;20.944;2023-04-27T12:34:32;100564.13;;;13.22;34.70
44441;BME280;30146;52.268;20.944;2023-04-27T12:37:03;100565.63;;;13.25;35.01
44441;BME280;30146;52.268;20.944;2023-04-27T12:39:34;100563.30;;;13.32;35.23
44441;BME280;30146;52.268;20.944;2023-04-27T12:42:05;100560.02;;;13.44;35.37
44441;BME280;30146;52.268;20.944;2023-04-27T12:44:36;100559.29;;;13.56;35.23
44441;BME280;30146;52.268;20.944;2023-04-27T12:47:07;100554.41;;;13.69;34.86
44441;BME280;30146;52.268;20.944;2023-04-27T12:49:45;100549.53;;;13.81;34.72
44441;BME280;30146;52.268;20.944;2023-04-27T12:52:16;100549.85;;;13.92;34.88
44441;BME280;30146;52.268;20.944;2023-04-27T12:54:47;100550.86;;;14.01;34.79
44441;BME280;30146;52.268;20.944;2023-04-27T12:57:19;100554.15;;;14.08;34.48
44441;BME280;30146;52.268;20.944;2023-04-27T12:59:50;100555.13;;;14.11;34.28
44441;BME280;30146;52.268;20.944;2023-04-27T13:02:23;100558.20;;;14.12;34.30
44441;BME280;30146;52.268;20.944;2023-04-27T13:04:54;100556.27;;;14.14;34.22
44441;BME280;30146;52.268;20.944;2023-04-27T13:07:25;100556.95;;;14.14;34.36
44441;BME280;30146;52.268;20.944;2023-04-27T13:09:56;100556.91;;;14.15;34.42
44441;BME280;30146;52.268;20.944;2023-04-27T13:12:27;100561.83;;;14.18;34.53
44441;BME280;30146;52.268;20.944;2023-04-27T13:14:57;100560.79;;;14.19;34.43
44441;BME280;30146;52.268;20.944;2023-04-27T13:17:36;100562.58;;;14.16;34.19
44441;BME280;30146;52.268;20.944;2023-04-27T13:20:24;100566.39;;;14.15;34.29
44441;BME280;30146;52.268;20.944;2023-04-27T13:22:56;100567.64;;;14.13;34.45
44441;BME280;30146;52.268;20.944;2023-04-27T13:25:27;100571.27;;;14.12;34.45
44441;BME280;30146;52.268;20.944;2023-04-27T13:27:58;100573.36;;;14.11;34.50
44441;BME280;30146;52.268;20.944;2023-04-27T13:30:34;100574.59;;;14.09;34.51